Quick Links (Output Below):   Max & Min Temps   /   Climate Reports   /   Zone Forecasts
River Forecasts   /   Forestry Forecasts   /   Aviation Forecasts   /   Radars   /   Features

Terminal Aerodrome Forecast (Monticello)

Pick a Site:
Arkadelphia | El Dorado | Fayetteville | Fort Smith | Harrison | Highfill | Hot Springs | Jonesboro
Little Rock | Monticello | Mountain Home | Pine Bluff | Texarkana
 Forecast 

KLLQ 300520Z 3006/3106 VRB05KT P6SM VCTS FEW050CB SCT100 BKN250
     FM300800 VRB03KT 5SM BR FEW010 SCT250
     FM301200 VRB04KT P6SM SCT035 BKN050
     FM301800 24006KT P6SM VCTS SCT040CB BKN250=


 Latest METARs (Observations) 
How to Decode METARs
09Z KLLQ 300853Z AUTO 28003KT 10SM CLR 24/22 A2997 RMK AO2 SLP146
         T02390222 55001
         
08Z KLLQ 300753Z AUTO 26004KT 9SM CLR 24/23 A2995 RMK AO2 SLP140
         T02440228
         
07Z KLLQ 300653Z AUTO 00000KT 10SM CLR 24/23 A2996 RMK AO2 SLP143
         T02440228
         
06Z KLLQ 300553Z AUTO 15003KT 10SM CLR 24/23 A2998 RMK AO2 SLP147
         60064 T02440228 10328 20239 403330233 58001
         
05Z KLLQ 300453Z AUTO 00000KT 7SM CLR 24/23 A2999 RMK AO2 SLP150
         T02440233
         
04Z KLLQ 300353Z AUTO 00000KT 10SM SCT042 25/23 A2999 RMK AO2 SLP150
         T02500233
         
03Z KLLQ 300253Z AUTO 00000KT 10SM FEW031 24/23 A2998 RMK AO2 LTG DSNT
         E AND SE TSE0159 SLP147 60064 T02440228 53013
         
02Z KLLQ 300153Z AUTO 12005KT 10SM TS FEW034 SCT085 BKN120 24/23 A2994
         RMK AO2 LTG DSNT E RAB05E53 SLP136 P0064 T02440228
         
01Z KLLQ 300053Z AUTO 31003KT 10SM TS BKN035 29/23 A2994 RMK AO2 TSB51
         SLP136 T02940228
         
00Z KLLQ 292353Z AUTO 20005KT 10SM FEW036 33/24 A2993 RMK AO2 SLP131
         T03280244 10333 20311 58003
         
***** Today's Observations (Above) *****


Back to Main Page
http://www.srh.noaa.gov/lzk/qfcst.php

USA.gov is the U.S. government's official web portal to all federal, state and local government web resources and services.